Time;durP1;ratioP1;P1;durP2;ratioP2;P2;SDS_P1;SDS_P2;PMS_P1;PMS_P2;Temp;Humidity;BMP_temperature;BMP_pressure;BME280_temperature;BME280_humidity;BME280_pressure;Samples;Min_cycle;Max_cycle;Signal;HPM_P1;HPM_P2
2021/04/22 00:00:45;;;;;;;13.33;12.00;;;10.60;99.90;;;;;;5048210;28;20458;-67
2021/04/22 00:03:11;;;;;;;13.67;12.37;;;10.70;99.90;;;;;;5032498;28;20276;-67
2021/04/22 00:05:41;;;;;;;14.37;11.40;;;10.70;99.90;;;;;;5045505;28;20264;-67
2021/04/22 00:08:11;;;;;;;12.47;11.20;;;10.70;99.90;;;;;;5049651;28;20577;-67
2021/04/22 00:10:49;;;;;;;11.97;10.83;;;10.70;99.90;;;;;;5048006;28;20443;-67
2021/04/22 00:13:17;;;;;;;11.23;10.10;;;10.60;99.90;;;;;;5049754;28;21075;-67
2021/04/22 00:15:44;;;;;;;12.47;11.20;;;10.40;99.90;;;;;;5049077;28;20471;-67
2021/04/22 00:18:10;;;;;;;11.90;10.70;;;10.50;99.90;;;;;;5047976;28;20484;-67
2021/04/22 00:20:37;;;;;;;13.87;12.37;;;10.60;99.90;;;;;;5048883;28;20455;-67
2021/04/22 00:23:07;;;;;;;13.80;12.37;;;10.80;99.90;;;;;;5043274;28;20439;-67
2021/04/22 00:25:33;;;;;;;13.27;12.07;;;10.90;99.90;;;;;;5047725;28;20525;-67
2021/04/22 00:28:00;;;;;;;11.67;10.57;;;11.00;99.90;;;;;;5050627;28;20428;-67
2021/04/22 00:30:26;;;;;;;11.97;10.87;;;11.10;99.90;;;;;;5052131;28;20535;-67
2021/04/22 00:32:51;;;;;;;12.17;11.07;;;11.10;99.90;;;;;;5045606;28;20506;-67
2021/04/22 00:35:18;;;;;;;12.80;11.57;;;11.20;99.90;;;;;;5042925;28;20809;-67
2021/04/22 00:37:43;;;;;;;15.20;10.73;;;11.20;99.90;;;;;;5052581;28;20633;-67
2021/04/22 00:40:19;;;;;;;12.87;11.37;;;11.10;99.90;;;;;;5052802;28;20452;-67
2021/04/22 00:42:44;;;;;;;14.70;11.30;;;11.20;99.90;;;;;;5044587;28;20224;-67
2021/04/22 00:45:11;;;;;;;12.37;11.27;;;11.20;99.90;;;;;;5048178;28;20423;-67
2021/04/22 00:47:38;;;;;;;12.80;11.37;;;11.20;99.90;;;;;;5051403;28;20173;-67
2021/04/22 00:50:17;;;;;;;13.20;12.00;;;11.30;99.90;;;;;;5043140;28;20439;-67
2021/04/22 00:52:43;;;;;;;13.20;11.87;;;11.30;99.90;;;;;;5028700;28;20443;-67
2021/04/22 00:55:09;;;;;;;14.50;13.10;;;11.30;99.90;;;;;;5038587;28;20427;-67
2021/04/22 00:57:35;;;;;;;13.87;12.67;;;11.20;99.90;;;;;;5053172;28;20521;-67
2021/04/22 01:00:03;;;;;;;13.90;12.40;;;11.20;99.90;;;;;;5051433;28;20424;-67
2021/04/22 01:02:29;;;;;;;13.83;12.50;;;11.10;99.90;;;;;;5050862;28;20193;-66
2021/04/22 01:04:54;;;;;;;14.77;13.20;;;11.20;99.90;;;;;;5045664;28;20798;-67
2021/04/22 01:07:20;;;;;;;15.73;14.23;;;11.20;99.90;;;;;;5052255;28;20174;-67
2021/04/22 01:09:45;;;;;;;15.90;13.87;;;11.10;99.90;;;;;;5052851;28;20184;-67
2021/04/22 01:12:12;;;;;;;16.03;14.43;;;11.10;99.90;;;;;;5049445;28;20544;-67
2021/04/22 01:14:39;;;;;;;18.83;16.77;;;11.20;99.90;;;;;;5048181;28;20276;-67
2021/04/22 01:17:07;;;;;;;18.50;16.80;;;11.30;99.90;;;;;;5046870;28;20460;-68
2021/04/22 01:19:32;;;;;;;17.90;16.10;;;11.30;99.90;;;;;;5042427;28;20428;-67
2021/04/22 01:21:58;;;;;;;18.33;16.00;;;11.30;99.90;;;;;;5051103;28;20589;-67
2021/04/22 01:24:23;;;;;;;19.83;16.93;;;11.30;99.90;;;;;;5051505;28;20527;-67
2021/04/22 01:26:49;;;;;;;16.93;15.20;;;11.30;99.90;;;;;;5052616;28;20205;-67
2021/04/22 01:29:15;;;;;;;20.47;17.83;;;11.30;99.90;;;;;;5046396;28;20186;-67
2021/04/22 01:31:40;;;;;;;19.17;17.17;;;11.20;99.90;;;;;;5050962;28;20208;-67
2021/04/22 01:34:08;;;;;;;19.40;17.60;;;11.30;99.90;;;;;;5051919;28;20264;-68
2021/04/22 01:36:35;;;;;;;18.00;16.27;;;11.40;99.90;;;;;;5052321;28;20539;-67
2021/04/22 01:39:03;;;;;;;17.90;16.00;;;11.40;99.90;;;;;;5048946;28;20459;-67
2021/04/22 01:41:29;;;;;;;20.10;18.10;;;11.40;99.90;;;;;;5051927;28;20448;-68
2021/04/22 01:43:55;;;;;;;18.23;16.33;;;11.30;99.90;;;;;;5046627;28;20775;-67
2021/04/22 01:46:21;;;;;;;19.97;17.93;;;11.30;99.90;;;;;;5051558;28;20478;-68
2021/04/22 01:48:46;;;;;;;18.47;16.40;;;11.20;99.90;;;;;;5052611;28;20800;-67
2021/04/22 01:51:12;;;;;;;19.60;17.57;;;11.20;99.90;;;;;;5051986;28;20236;-67
2021/04/22 01:53:38;;;;;;;20.00;18.07;;;11.20;99.90;;;;;;5050196;28;20181;-66
2021/04/22 01:56:04;;;;;;;19.60;17.60;;;11.20;99.90;;;;;;5039287;28;20451;-67
2021/04/22 01:58:29;;;;;;;20.10;16.50;;;11.30;99.90;;;;;;5051142;28;20181;-67
2021/04/22 02:00:57;;;;;;;18.13;16.27;;;11.40;99.90;;;;;;5041358;28;20228;-67
2021/04/22 02:03:24;;;;;;;18.33;16.50;;;11.40;99.90;;;;;;5019222;28;20265;-67
2021/04/22 02:05:50;;;;;;;19.73;17.73;;;11.40;99.90;;;;;;5051821;28;20439;-67
2021/04/22 02:08:17;;;;;;;18.40;16.50;;;11.30;99.90;;;;;;5051303;28;20574;-67
2021/04/22 02:10:44;;;;;;;19.23;17.23;;;11.40;99.90;;;;;;5052193;28;20280;-67
2021/04/22 02:13:12;;;;;;;18.87;17.07;;;11.40;99.90;;;;;;5050995;28;20775;-67
2021/04/22 02:15:38;;;;;;;18.53;16.73;;;11.40;99.90;;;;;;5050911;28;20432;-67
2021/04/22 02:18:04;;;;;;;17.97;16.07;;;11.40;99.90;;;;;;5052102;28;21064;-67
2021/04/22 02:20:30;;;;;;;17.47;15.60;;;11.30;99.90;;;;;;5048331;28;20598;-67
2021/04/22 02:22:56;;;;;;;18.90;17.10;;;11.20;99.90;;;;;;5043770;28;20424;-67
2021/04/22 02:25:24;;;;;;;20.17;18.27;;;11.20;99.90;;;;;;5049524;28;20428;-67
2021/04/22 02:27:51;;;;;;;19.47;17.47;;;11.20;99.90;;;;;;5051493;28;20197;-67
2021/04/22 02:30:25;;;;;;;26.23;18.90;;;11.20;99.90;;;;;;5051079;28;20474;-67
2021/04/22 02:32:52;;;;;;;19.07;17.07;;;11.10;99.90;;;;;;5050658;28;20457;-68
2021/04/22 02:35:23;;;;;;;18.77;16.80;;;11.00;99.90;;;;;;5051266;28;20444;-67
2021/04/22 02:37:49;;;;;;;18.60;16.77;;;11.00;99.90;;;;;;5050136;28;20468;-67
2021/04/22 02:40:17;;;;;;;19.80;17.83;;;11.00;99.90;;;;;;5046825;28;20433;-67
2021/04/22 02:42:44;;;;;;;22.43;18.90;;;10.90;99.90;;;;;;5050345;28;20428;-67
2021/04/22 02:45:15;;;;;;;23.87;21.57;;;10.80;99.90;;;;;;5021179;28;20437;-67
2021/04/22 02:47:41;;;;;;;20.80;18.70;;;10.80;99.90;;;;;;5049635;28;20772;-67
2021/04/22 02:50:10;;;;;;;24.17;21.57;;;10.80;99.90;;;;;;5042105;28;20986;-67
2021/04/22 02:52:35;;;;;;;27.00;22.27;;;10.90;99.90;;;;;;5049389;28;20853;-68
2021/04/22 02:55:02;;;;;;;21.70;19.53;;;10.90;99.90;;;;;;5047288;28;20704;-67
2021/04/22 02:57:27;;;;;;;22.93;20.63;;;10.90;99.90;;;;;;5048719;28;20201;-67
2021/04/22 02:59:53;;;;;;;24.70;22.17;;;11.00;99.90;;;;;;5048869;28;20428;-67
2021/04/22 03:02:18;;;;;;;27.73;25.07;;;10.90;99.90;;;;;;5050573;28;20212;-67
2021/04/22 03:04:44;;;;;;;27.43;23.73;;;10.90;99.90;;;;;;5050023;28;20265;-67
2021/04/22 03:07:09;;;;;;;24.07;21.67;;;10.90;99.90;;;;;;5025406;28;20215;-67
2021/04/22 03:09:35;;;;;;;24.60;22.07;;;10.90;99.90;;;;;;5048024;28;20563;-67
2021/04/22 03:12:00;;;;;;;32.97;29.40;;;10.90;99.90;;;;;;5043917;28;20193;-67
2021/04/22 03:14:26;;;;;;;37.60;32.53;;;11.00;99.90;;;;;;5050629;28;20213;-67
2021/04/22 03:16:51;;;;;;;33.13;29.57;;;10.90;99.90;;;;;;5050602;28;20221;-67
2021/04/22 03:19:17;;;;;;;38.00;30.23;;;11.00;99.90;;;;;;5049927;28;20726;-67
2021/04/22 03:21:42;;;;;;;33.67;29.93;;;11.00;99.90;;;;;;5045354;28;20663;-67
2021/04/22 03:24:09;;;;;;;33.80;30.10;;;11.00;99.90;;;;;;5036304;28;20202;-67
2021/04/22 03:26:34;;;;;;;34.67;30.97;;;11.00;99.90;;;;;;5039764;28;20213;-67
2021/04/22 03:29:00;;;;;;;31.17;28.00;;;10.90;99.90;;;;;;5049435;28;20888;-67
2021/04/22 03:31:27;;;;;;;32.07;28.57;;;10.90;99.90;;;;;;5050279;28;20201;-67
2021/04/22 03:33:52;;;;;;;31.20;27.77;;;10.80;99.90;;;;;;5045541;28;20301;-68
2021/04/22 03:36:18;;;;;;;28.63;25.23;;;10.80;99.90;;;;;;5045355;28;20538;-67
2021/04/22 03:38:43;;;;;;;29.60;26.43;;;10.70;99.90;;;;;;5050269;28;20235;-67
2021/04/22 03:41:09;;;;;;;32.47;29.07;;;10.70;99.90;;;;;;5050479;28;20193;-67
2021/04/22 03:43:35;;;;;;;29.80;26.60;;;10.60;99.90;;;;;;5048475;28;20697;-67
2021/04/22 03:46:01;;;;;;;28.23;25.30;;;10.60;99.90;;;;;;5049718;28;20264;-67
2021/04/22 03:48:27;;;;;;;30.10;27.00;;;10.50;99.90;;;;;;5050364;28;20876;-67
2021/04/22 03:50:52;;;;;;;29.30;26.37;;;10.30;99.90;;;;;;5035320;28;20252;-66
2021/04/22 03:53:18;;;;;;;30.47;27.07;;;10.30;99.90;;;;;;5045235;28;20265;-67
2021/04/22 03:55:43;;;;;;;31.83;28.30;;;10.30;99.90;;;;;;5050015;28;20185;-66
2021/04/22 03:58:09;;;;;;;30.37;26.77;;;10.20;99.90;;;;;;5048823;28;20288;-68
2021/04/22 04:00:34;;;;;;;32.50;27.83;;;10.20;99.90;;;;;;5045305;28;20629;-68
2021/04/22 04:03:00;;;;;;;31.40;28.17;;;10.20;99.90;;;;;;5044487;28;20548;-67
2021/04/22 04:05:25;;;;;;;34.33;29.43;;;10.20;99.90;;;;;;5046778;28;20185;-67
2021/04/22 04:07:53;;;;;;;33.77;28.90;;;10.10;99.90;;;;;;5054253;28;20196;-67
2021/04/22 04:10:19;;;;;;;30.67;27.57;;;10.00;99.90;;;;;;5054459;28;20686;-67
2021/04/22 04:12:44;;;;;;;33.13;28.60;;;10.00;99.90;;;;;;5053017;28;20432;-67
2021/04/22 04:15:11;;;;;;;32.93;29.10;;;9.80;99.90;;;;;;5046386;28;20178;-67
2021/04/22 04:17:37;;;;;;;31.17;27.93;;;9.80;99.90;;;;;;5051880;28;20661;-68
2021/04/22 04:20:09;;;;;;;32.20;27.80;;;9.80;99.90;;;;;;5052961;28;20442;-67
2021/04/22 04:22:35;;;;;;;30.80;25.90;;;9.70;99.90;;;;;;5054167;28;20782;-67
2021/04/22 04:25:00;;;;;;;31.13;26.10;;;9.70;99.90;;;;;;5041179;28;20436;-67
2021/04/22 04:27:26;;;;;;;30.13;26.97;;;9.60;99.90;;;;;;5051855;28;20208;-67
2021/04/22 04:29:52;;;;;;;28.83;25.73;;;9.50;99.90;;;;;;5053000;28;20260;-67
2021/04/22 04:32:17;;;;;;;30.37;27.10;;;9.50;99.90;;;;;;5051982;28;20737;-66
2021/04/22 04:34:43;;;;;;;29.30;26.13;;;9.50;99.90;;;;;;5053773;28;20269;-67
2021/04/22 04:37:08;;;;;;;34.23;29.40;;;9.40;99.90;;;;;;5049205;28;20670;-67
2021/04/22 04:39:34;;;;;;;30.10;27.07;;;9.50;99.90;;;;;;5052099;28;20178;-67
2021/04/22 04:42:00;;;;;;;29.33;26.13;;;9.50;99.90;;;;;;5054197;28;20197;-67
2021/04/22 04:44:25;;;;;;;36.37;26.80;;;9.50;99.90;;;;;;5053050;28;20244;-67
2021/04/22 04:46:51;;;;;;;30.30;27.20;;;9.50;99.90;;;;;;5051832;28;20268;-67
2021/04/22 04:49:16;;;;;;;27.43;24.63;;;9.50;99.90;;;;;;5052377;28;20178;-67
2021/04/22 04:51:42;;;;;;;29.57;26.07;;;9.60;99.90;;;;;;5053145;28;20213;-67
2021/04/22 04:54:08;;;;;;;35.60;30.90;;;9.60;99.90;;;;;;5053495;28;20180;-67
2021/04/22 04:56:33;;;;;;;33.13;29.67;;;9.70;99.90;;;;;;5053571;28;20211;-67
2021/04/22 04:58:59;;;;;;;33.93;28.50;;;9.70;99.90;;;;;;5048279;28;20460;-67
2021/04/22 05:01:25;;;;;;;30.80;27.37;;;9.70;99.90;;;;;;5049517;28;20220;-67
2021/04/22 05:03:50;;;;;;;27.07;24.27;;;9.60;99.90;;;;;;5053271;28;20566;-67
2021/04/22 05:06:16;;;;;;;28.00;24.03;;;9.70;99.90;;;;;;5053383;28;20216;-66
2021/04/22 05:08:41;;;;;;;27.00;24.13;;;9.70;99.90;;;;;;5052989;28;20590;-67
2021/04/22 05:11:07;;;;;;;30.00;24.53;;;9.70;99.90;;;;;;5050723;28;20243;-67
2021/04/22 05:13:33;;;;;;;26.37;23.60;;;9.70;99.90;;;;;;5047901;28;20200;-67
2021/04/22 05:15:59;;;;;;;26.37;23.63;;;9.60;99.90;;;;;;5045544;28;20198;-67
2021/04/22 05:18:26;;;;;;;26.93;23.97;;;9.60;99.90;;;;;;5047875;28;20174;-67
2021/04/22 05:20:52;;;;;;;27.27;24.37;;;9.70;99.90;;;;;;5052430;28;20455;-67
2021/04/22 05:23:18;;;;;;;28.10;25.20;;;9.80;99.90;;;;;;5049010;28;20417;-67
2021/04/22 05:25:44;;;;;;;26.50;23.20;;;9.80;99.90;;;;;;5043755;28;20212;-67
2021/04/22 05:28:10;;;;;;;25.27;22.73;;;9.90;99.90;;;;;;5042252;28;21102;-67
2021/04/22 05:30:35;;;;;;;26.40;23.60;;;10.10;99.90;;;;;;5051812;28;20247;-67
2021/04/22 05:33:01;;;;;;;28.80;25.67;;;10.30;99.90;;;;;;5045907;28;20174;-67
2021/04/22 05:35:26;;;;;;;30.90;25.73;;;10.40;99.90;;;;;;5051701;28;20170;-67
2021/04/22 05:37:52;;;;;;;27.63;24.83;;;10.50;99.90;;;;;;5048319;28;20231;-67
2021/04/22 05:40:19;;;;;;;29.13;23.07;;;10.50;99.90;;;;;;5052075;28;20165;-67
2021/04/22 05:42:45;;;;;;;25.87;23.07;;;10.70;99.90;;;;;;5045579;28;20192;-67
2021/04/22 05:45:11;;;;;;;26.83;23.97;;;10.70;99.90;;;;;;5051682;28;20523;-67
2021/04/22 05:47:36;;;;;;;28.97;23.20;;;10.80;99.90;;;;;;5044247;28;20542;-67
2021/04/22 05:50:03;;;;;;;26.93;24.10;;;10.90;99.90;;;;;;5051743;28;20489;-67
2021/04/22 05:52:28;;;;;;;27.10;23.67;;;10.90;99.90;;;;;;5046344;28;20552;-67
2021/04/22 05:54:54;;;;;;;38.37;28.07;;;10.80;99.90;;;;;;5052069;28;20443;-67
2021/04/22 05:57:19;;;;;;;27.93;25.07;;;10.80;99.90;;;;;;5051884;28;20193;-66
2021/04/22 05:59:45;;;;;;;24.87;22.23;;;10.80;99.90;;;;;;5043751;28;20181;-66
2021/04/22 06:02:10;;;;;;;31.83;28.53;;;10.80;99.90;;;;;;5052101;28;20189;-66
2021/04/22 06:04:36;;;;;;;34.03;25.27;;;10.80;99.90;;;;;;5052036;28;20196;-66
2021/04/22 06:07:01;;;;;;;25.30;22.70;;;10.90;99.90;;;;;;5047392;28;20201;-66
2021/04/22 06:09:27;;;;;;;29.27;24.20;;;10.90;99.90;;;;;;5051534;28;20205;-66
2021/04/22 06:11:52;;;;;;;27.77;24.83;;;11.00;99.90;;;;;;5050146;28;20206;-66
2021/04/22 06:14:18;;;;;;;26.50;23.80;;;10.90;99.90;;;;;;5051995;28;20185;-66
2021/04/22 06:16:44;;;;;;;25.10;22.33;;;11.00;99.90;;;;;;5051488;28;20205;-66
2021/04/22 06:19:09;;;;;;;27.37;24.47;;;11.00;99.90;;;;;;5051624;28;20651;-66
2021/04/22 06:21:35;;;;;;;27.73;24.77;;;11.10;99.90;;;;;;5051179;28;20270;-66
2021/04/22 06:24:00;;;;;;;25.70;22.50;;;11.20;99.90;;;;;;5051833;28;20189;-65
2021/04/22 06:26:26;;;;;;;25.70;23.00;;;11.20;99.90;;;;;;5051574;28;20192;-65
2021/04/22 06:28:51;;;;;;;26.40;23.80;;;11.20;99.90;;;;;;5051971;28;20201;-67
2021/04/22 06:31:17;;;;;;;28.03;25.23;;;11.40;99.90;;;;;;5054461;28;20201;-67
2021/04/22 06:33:43;;;;;;;30.47;25.80;;;11.40;99.90;;;;;;5049355;28;20190;-67
2021/04/22 06:36:09;;;;;;;31.77;26.00;;;11.10;99.90;;;;;;5047510;28;20452;-67
2021/04/22 06:38:35;;;;;;;28.00;24.30;;;11.00;99.90;;;;;;5051582;28;20185;-67
2021/04/22 06:41:00;;;;;;;30.87;26.13;;;10.90;99.90;;;;;;5050641;28;20206;-67
2021/04/22 06:43:26;;;;;;;28.50;24.53;;;10.90;99.90;;;;;;5046495;28;20499;-67
2021/04/22 06:45:52;;;;;;;27.37;23.70;;;10.80;99.90;;;;;;5047097;28;20542;-67
2021/04/22 06:48:17;;;;;;;27.20;23.93;;;10.80;99.90;;;;;;5046628;28;20180;-67
2021/04/22 06:50:44;;;;;;;34.37;23.67;;;10.70;99.90;;;;;;5027996;28;20553;-67
2021/04/22 06:53:10;;;;;;;24.40;21.87;;;10.60;99.90;;;;;;5044828;28;20307;-67
2021/04/22 06:55:36;;;;;;;25.87;22.87;;;10.70;99.90;;;;;;5051177;28;20522;-67
2021/04/22 06:58:04;;;;;;;25.60;22.03;;;10.70;99.90;;;;;;5047403;28;20880;-67
2021/04/22 07:00:39;;;;;;;22.17;19.90;;;10.80;99.90;;;;;;5049983;28;20963;-67
2021/04/22 07:03:05;;;;;;;21.60;18.93;;;10.90;99.90;;;;;;5048313;28;20442;-67
2021/04/22 07:05:31;;;;;;;22.33;19.70;;;10.90;99.90;;;;;;5035844;28;20451;-66
2021/04/22 07:07:57;;;;;;;22.70;20.10;;;11.00;99.90;;;;;;5050931;28;20953;-67
2021/04/22 07:10:23;;;;;;;24.70;20.03;;;11.20;99.90;;;;;;5045995;28;20173;-67
2021/04/22 07:12:48;;;;;;;24.73;19.63;;;11.30;99.90;;;;;;5042250;28;20769;-67
2021/04/22 07:15:15;;;;;;;22.53;20.17;;;11.50;99.90;;;;;;5039914;28;20801;-67
2021/04/22 07:17:40;;;;;;;20.57;18.37;;;11.70;99.90;;;;;;5041715;28;20533;-67
2021/04/22 07:20:16;;;;;;;20.63;18.63;;;11.70;99.90;;;;;;5039887;28;20918;-66
2021/04/22 07:22:42;;;;;;;21.57;18.77;;;11.60;99.90;;;;;;5034964;28;20169;-67
2021/04/22 07:25:09;;;;;;;22.60;18.70;;;11.60;99.90;;;;;;5046714;28;20955;-67
2021/04/22 07:27:35;;;;;;;22.17;18.57;;;11.70;99.90;;;;;;5038999;28;20247;-66
2021/04/22 07:30:01;;;;;;;22.73;18.43;;;11.80;99.90;;;;;;5033403;28;20480;-67
2021/04/22 07:32:26;;;;;;;21.40;19.20;;;11.80;99.90;;;;;;5042804;28;20219;-67
2021/04/22 07:34:52;;;;;;;19.93;17.50;;;11.70;99.90;;;;;;5032407;28;20198;-67
2021/04/22 07:37:18;;;;;;;22.20;18.27;;;11.90;99.90;;;;;;5037823;28;20203;-67
2021/04/22 07:39:45;;;;;;;22.80;19.60;;;12.00;99.90;;;;;;5040258;28;20435;-67
2021/04/22 07:42:11;;;;;;;23.07;19.57;;;12.10;99.90;;;;;;5034366;28;20203;-67
2021/04/22 07:44:37;;;;;;;21.60;19.30;;;12.10;99.90;;;;;;5037346;28;20458;-67
2021/04/22 07:47:03;;;;;;;20.20;18.30;;;12.40;99.90;;;;;;5043112;28;20180;-67
2021/04/22 07:49:29;;;;;;;20.87;18.67;;;12.60;99.90;;;;;;5040983;28;20929;-68
2021/04/22 07:51:56;;;;;;;19.93;18.03;;;12.70;99.90;;;;;;5032517;28;20956;-67
2021/04/22 07:54:22;;;;;;;22.00;18.47;;;12.90;99.90;;;;;;5038044;28;20934;-67
2021/04/22 07:56:47;;;;;;;21.10;18.80;;;12.90;99.90;;;;;;5035515;28;20467;-67
2021/04/22 07:59:13;;;;;;;23.43;18.10;;;12.70;99.90;;;;;;5032457;28;20478;-67
2021/04/22 08:01:38;;;;;;;22.53;18.40;;;12.70;99.90;;;;;;5026685;28;20205;-67
2021/04/22 08:04:05;;;;;;;26.17;18.90;;;12.80;99.90;;;;;;5043215;28;20190;-67
2021/04/22 08:06:31;;;;;;;20.30;18.00;;;12.80;99.90;;;;;;5040094;28;20615;-67
2021/04/22 08:08:57;;;;;;;21.47;19.20;;;12.80;99.90;;;;;;5047177;28;20850;-67
2021/04/22 08:11:22;;;;;;;23.63;18.70;;;13.00;99.90;;;;;;5045466;28;20451;-67
2021/04/22 08:13:48;;;;;;;19.50;16.67;;;13.00;99.90;;;;;;5050220;28;20189;-67
2021/04/22 08:16:13;;;;;;;20.67;18.20;;;13.00;99.90;;;;;;5048617;28;20204;-67
2021/04/22 08:18:39;;;;;;;20.30;18.00;;;12.90;99.90;;;;;;5043481;28;20178;-67
2021/04/22 08:21:05;;;;;;;19.07;16.97;;;12.90;99.90;;;;;;5035414;28;20285;-67
2021/04/22 08:23:34;;;;;;;19.00;16.67;;;12.90;99.90;;;;;;5046777;28;20186;-67
2021/04/22 08:26:04;;;;;;;19.73;17.53;;;12.80;99.90;;;;;;5049269;28;20174;-67
2021/04/22 08:28:32;;;;;;;19.77;17.43;;;13.00;99.90;;;;;;5035115;28;20471;-67
2021/04/22 08:31:02;;;;;;;20.30;16.77;;;13.10;99.90;;;;;;5041981;28;20865;-67
2021/04/22 08:33:31;;;;;;;22.60;15.77;;;13.20;99.90;;;;;;5049130;28;20486;-67
2021/04/22 08:35:57;;;;;;;16.43;14.60;;;13.10;99.90;;;;;;5045192;28;20486;-67
2021/04/22 08:38:23;;;;;;;17.30;15.63;;;13.40;99.90;;;;;;5050338;28;20964;-67
2021/04/22 08:40:50;;;;;;;22.43;15.53;;;13.70;99.90;;;;;;5042651;28;20439;-67
2021/04/22 08:43:16;;;;;;;19.50;15.00;;;14.20;99.90;;;;;;5042007;28;20206;-66
2021/04/22 08:45:42;;;;;;;18.20;13.83;;;14.60;99.90;;;;;;5048735;28;20474;-67
2021/04/22 08:48:11;;;;;;;15.97;14.30;;;14.60;99.90;;;;;;5048420;28;20458;-67
2021/04/22 08:50:37;;;;;;;15.87;14.20;;;14.70;99.90;;;;;;5046707;28;20552;-67
2021/04/22 08:53:07;;;;;;;14.30;12.73;;;14.70;99.90;;;;;;5045074;28;20440;-67
2021/04/22 08:55:34;;;;;;;15.40;13.80;;;14.70;99.90;;;;;;5041165;28;21020;-67
2021/04/22 08:58:02;;;;;;;15.60;14.10;;;14.70;99.90;;;;;;5044116;28;20542;-67
2021/04/22 09:00:32;;;;;;;16.17;14.00;;;14.80;99.90;;;;;;5038651;28;20436;-67
2021/04/22 09:02:57;;;;;;;14.33;12.90;;;15.00;99.90;;;;;;5038778;28;20440;-67
2021/04/22 09:05:23;;;;;;;15.33;13.20;;;15.50;99.90;;;;;;5044964;28;20913;-67
2021/04/22 09:07:49;;;;;;;15.80;13.83;;;16.40;99.90;;;;;;5019728;28;20178;-67
2021/04/22 09:10:18;;;;;;;16.80;13.07;;;17.00;99.90;;;;;;5025533;28;20186;-67
2021/04/22 09:13:06;;;;;;;15.20;13.70;;;17.40;99.90;;;;;;5047993;28;20652;-67
2021/04/22 09:15:33;;;;;;;17.73;14.43;;;17.10;99.90;;;;;;5034197;28;20450;-67
2021/04/22 09:18:04;;;;;;;15.83;13.67;;;17.20;99.90;;;;;;5040356;28;20900;-67
2021/04/22 09:20:36;;;;;;;17.37;13.67;;;17.60;98.90;;;;;;5042562;28;20485;-67
2021/04/22 09:23:19;;;;;;;15.47;13.83;;;17.90;97.90;;;;;;5038778;28;20440;-67
2021/04/22 09:26:06;;;;;;;15.27;12.37;;;18.40;96.60;;;;;;5044183;28;20801;-67
2021/04/22 09:28:40;;;;;;;21.27;13.73;;;18.70;95.20;;;;;;5046890;28;20439;-67
2021/04/22 09:31:07;;;;;;;14.00;12.70;;;19.30;99.90;;;;;;5037807;28;20468;-67
2021/04/22 09:33:34;;;;;;;16.20;14.50;;;19.70;99.90;;;;;;5042992;28;20492;-67
2021/04/22 09:36:11;;;;;;;12.67;11.37;;;19.80;99.80;;;;;;5040198;28;20444;-67
2021/04/22 09:38:38;;;;;;;12.73;11.50;;;19.90;99.20;;;;;;5039497;28;20443;-67
2021/04/22 09:41:25;;;;;;;13.73;12.20;;;20.10;97.90;;;;;;5037278;28;20961;-67
2021/04/22 09:44:09;;;;;;;12.50;11.33;;;20.80;91.20;;;;;;5039423;28;20791;-67
2021/04/22 09:46:40;;;;;;;15.10;13.60;;;20.90;73.50;;;;;;5034551;28;20452;-67
2021/04/22 09:49:11;;;;;;;13.67;11.50;;;20.80;70.10;;;;;;5043569;28;20518;-67
2021/04/22 09:51:38;;;;;;;13.37;11.07;;;20.90;67.40;;;;;;5041023;28;20482;-67
2021/04/22 09:54:14;;;;;;;11.63;10.53;;;21.20;65.10;;;;;;5039564;28;20453;-67
2021/04/22 09:56:46;;;;;;;12.13;9.97;;;22.10;62.30;;;;;;5038221;28;20468;-67
2021/04/22 09:59:17;;;;;;;11.13;10.13;;;22.60;59.30;;;;;;5040708;28;20442;-67
2021/04/22 10:01:43;;;;;;;10.00;9.00;;;23.00;57.70;;;;;;5043102;28;20453;-67
2021/04/22 10:04:08;;;;;;;10.67;9.60;;;23.60;57.00;;;;;;5034638;28;20448;-65
2021/04/22 10:06:41;;;;;;;9.80;8.80;;;23.20;56.90;;;;;;5036071;28;20436;-67
2021/04/22 10:09:08;;;;;;;10.40;9.40;;;23.10;55.90;;;;;;5044250;28;20207;-70
2021/04/22 10:11:44;;;;;;;12.60;9.10;;;23.50;54.00;;;;;;5034361;28;20974;-67
2021/04/22 10:14:10;;;;;;;9.53;8.43;;;23.60;53.70;;;;;;5041556;28;20435;-66
2021/04/22 10:16:36;;;;;;;9.07;8.00;;;24.20;52.60;;;;;;5042665;28;20885;-66
2021/04/22 10:19:01;;;;;;;10.33;9.27;;;24.70;51.60;;;;;;5038727;28;20238;-67
2021/04/22 10:21:28;;;;;;;11.50;9.23;;;24.10;51.40;;;;;;5039274;28;20328;-68
2021/04/22 10:24:06;;;;;;;9.90;8.70;;;24.50;52.00;;;;;;5037831;28;20181;-67
2021/04/22 10:26:32;;;;;;;9.40;8.40;;;25.00;51.90;;;;;;5043367;28;20440;-67
2021/04/22 10:28:57;;;;;;;7.80;7.13;;;25.30;51.50;;;;;;5035783;28;20844;-67
2021/04/22 10:31:25;;;;;;;8.90;6.67;;;24.70;51.10;;;;;;5042293;28;20213;-67
2021/04/22 10:33:53;;;;;;;9.03;8.13;;;25.20;51.10;;;;;;5038773;28;20197;-67
2021/04/22 10:36:20;;;;;;;9.20;8.30;;;25.60;51.40;;;;;;5035246;28;20521;-67
2021/04/22 10:38:50;;;;;;;10.00;8.50;;;26.10;52.90;;;;;;5042475;28;20447;-67
2021/04/22 10:41:17;;;;;;;11.00;7.77;;;27.50;42.90;;;;;;5044308;28;20913;-68
2021/04/22 10:43:44;;;;;;;8.33;7.57;;;28.50;48.80;;;;;;5041027;28;20436;-67
2021/04/22 10:46:09;;;;;;;8.13;6.93;;;28.50;47.50;;;;;;5034680;28;21015;-67
2021/04/22 10:48:35;;;;;;;8.70;7.80;;;28.30;46.90;;;;;;5035573;28;20464;-67
2021/04/22 10:51:01;;;;;;;8.43;7.13;;;28.20;46.50;;;;;;5040418;28;20221;-68
2021/04/22 10:53:28;;;;;;;9.03;8.23;;;28.50;46.10;;;;;;5035182;28;20628;-65
2021/04/22 10:55:56;;;;;;;8.70;7.90;;;27.70;45.40;;;;;;5042106;28;20563;-67
2021/04/22 10:58:35;;;;;;;10.50;7.87;;;28.00;46.20;;;;;;5039648;28;20452;-68
2021/04/22 11:01:05;;;;;;;11.27;6.93;;;27.80;45.70;;;;;;5040187;28;20494;-65
2021/04/22 11:03:41;;;;;;;7.60;6.30;;;27.90;46.10;;;;;;5040879;28;20434;-65
2021/04/22 11:06:15;;;;;;;9.43;6.97;;;28.70;44.00;;;;;;5049113;28;20518;-68
2021/04/22 11:08:47;;;;;;;9.87;7.00;;;28.30;43.60;;;;;;5043791;28;20485;-67
2021/04/22 11:11:24;;;;;;;8.83;6.80;;;28.30;43.80;;;;;;5038402;28;20457;-67
2021/04/22 11:14:03;;;;;;;10.23;7.80;;;28.70;43.00;;;;;;5044410;28;20493;-67
2021/04/22 11:16:30;;;;;;;8.30;6.70;;;27.90;42.40;;;;;;5047001;28;20961;-67
2021/04/22 11:18:56;;;;;;;8.13;7.37;;;27.50;42.20;;;;;;5050002;28;20849;-67
2021/04/22 11:21:26;;;;;;;8.10;6.60;;;27.70;42.60;;;;;;5049708;28;20774;-67
2021/04/22 11:23:54;;;;;;;7.33;6.33;;;28.70;43.00;;;;;;5049372;28;20193;-67
2021/04/22 11:26:31;;;;;;;7.30;6.47;;;29.30;41.30;;;;;;5050300;28;20439;-67
2021/04/22 11:29:12;;;;;;;6.57;5.73;;;30.00;41.10;;;;;;5047913;28;20873;-65
2021/04/22 11:31:49;;;;;;;6.77;5.97;;;31.40;35.90;;;;;;5049696;28;20443;-67
2021/04/22 11:34:15;;;;;;;8.27;5.80;;;30.80;34.80;;;;;;5049333;28;20991;-67
2021/04/22 11:36:52;;;;;;;10.10;7.50;;;30.20;36.00;;;;;;5049359;28;20452;-67
2021/04/22 11:39:28;;;;;;;9.57;8.57;;;29.50;37.00;;;;;;5049366;28;20826;-67
2021/04/22 11:41:56;;;;;;;6.93;6.27;;;30.10;36.60;;;;;;5047747;28;20443;-67
2021/04/22 11:44:36;;;;;;;7.47;6.77;;;30.10;36.90;;;;;;5049145;28;20436;-67
2021/04/22 11:47:14;;;;;;;8.70;7.80;;;30.10;36.80;;;;;;5049784;28;20446;-67
2021/04/22 11:49:40;;;;;;;10.40;7.37;;;30.50;36.90;;;;;;5049017;28;20444;-67
2021/04/22 11:52:15;;;;;;;10.50;6.50;;;32.00;37.50;;;;;;5049834;28;20467;-67
2021/04/22 11:54:41;;;;;;;8.27;7.47;;;32.70;36.40;;;;;;5049733;28;20546;-67
2021/04/22 11:57:08;;;;;;;8.03;7.33;;;32.20;36.30;;;;;;5049625;28;20447;-67
2021/04/22 11:59:34;;;;;;;8.07;7.30;;;31.30;36.00;;;;;;5044286;28;20261;-67
2021/04/22 12:02:04;;;;;;;8.30;7.50;;;31.40;35.60;;;;;;5049913;28;20490;-66
2021/04/22 12:04:37;;;;;;;8.33;7.53;;;30.70;36.00;;;;;;5049522;28;20436;-67
2021/04/22 12:07:05;;;;;;;9.73;7.57;;;30.50;35.30;;;;;;5047470;28;20470;-67
2021/04/22 12:09:34;;;;;;;6.93;6.23;;;31.20;35.30;;;;;;5048942;28;20463;-66
2021/04/22 12:12:15;;;;;;;7.90;6.07;;;31.70;35.70;;;;;;5049457;28;20799;-67
2021/04/22 12:14:42;;;;;;;7.80;6.93;;;32.40;34.70;;;;;;5049582;28;20423;-67
2021/04/22 12:17:22;;;;;;;7.17;6.47;;;31.60;34.60;;;;;;5048848;28;21003;-67
2021/04/22 12:19:50;;;;;;;7.10;6.40;;;32.30;35.00;;;;;;5049160;28;20530;-67
2021/04/22 12:22:32;;;;;;;8.13;6.63;;;32.80;33.50;;;;;;5048990;28;20513;-64
2021/04/22 12:24:59;;;;;;;7.77;7.17;;;32.80;33.50;;;;;;5048192;28;20427;-66
2021/04/22 12:27:34;;;;;;;8.10;6.63;;;32.60;33.30;;;;;;5053309;28;20941;-66
2021/04/22 12:30:01;;;;;;;6.83;5.90;;;33.60;33.20;;;;;;5053249;28;20436;-67
2021/04/22 12:32:27;;;;;;;8.50;6.63;;;34.80;33.50;;;;;;5051376;28;20458;-67